sensor_id;sensor_type;location;lat;lon;timestamp;pressure;altitude;pressure_sealevel;temperature;humidity
13312;BME280;34033;48.672;9.376;2024-01-15T00:01:05;97552.56;;;0.20;71.66
13312;BME280;34033;48.672;9.376;2024-01-15T00:03:30;97545.00;;;0.29;71.31
13312;BME280;34033;48.672;9.376;2024-01-15T00:05:55;97541.78;;;0.39;70.56
13312;BME280;34033;48.672;9.376;2024-01-15T00:08:20;97537.78;;;0.49;70.47
13312;BME280;34033;48.672;9.376;2024-01-15T00:10:46;97533.66;;;0.55;70.56
13312;BME280;34033;48.672;9.376;2024-01-15T00:13:11;97527.19;;;0.63;70.36
13312;BME280;34033;48.672;9.376;2024-01-15T00:15:37;97527.75;;;0.68;70.15
13312;BME280;34033;48.672;9.376;2024-01-15T00:18:02;97530.03;;;0.66;68.76
13312;BME280;34033;48.672;9.376;2024-01-15T00:20:27;97524.88;;;0.77;68.66
13312;BME280;34033;48.672;9.376;2024-01-15T00:22:53;97532.75;;;0.78;68.59
13312;BME280;34033;48.672;9.376;2024-01-15T00:25:18;97528.88;;;0.79;68.59
13312;BME280;34033;48.672;9.376;2024-01-15T00:27:43;97526.75;;;0.89;68.03
13312;BME280;34033;48.672;9.376;2024-01-15T00:30:09;97522.88;;;0.90;67.44
13312;BME280;34033;48.672;9.376;2024-01-15T00:32:34;97532.44;;;0.68;67.19
13312;BME280;34033;48.672;9.376;2024-01-15T00:35:00;97525.00;;;0.68;68.07
13312;BME280;34033;48.672;9.376;2024-01-15T00:37:25;97515.13;;;0.67;68.29
13312;BME280;34033;48.672;9.376;2024-01-15T00:39:50;97525.34;;;0.67;68.43
13312;BME280;34033;48.672;9.376;2024-01-15T00:42:16;97507.13;;;0.62;68.04
13312;BME280;34033;48.672;9.376;2024-01-15T00:44:42;97516.53;;;0.61;67.24
13312;BME280;34033;48.672;9.376;2024-01-15T00:47:07;97512.38;;;0.67;66.75
13312;BME280;34033;48.672;9.376;2024-01-15T00:49:32;97509.75;;;0.71;66.98
13312;BME280;34033;48.672;9.376;2024-01-15T00:51:58;97519.72;;;0.75;67.29
13312;BME280;34033;48.672;9.376;2024-01-15T00:54:23;97520.41;;;0.72;66.61
13312;BME280;34033;48.672;9.376;2024-01-15T00:56:48;97525.72;;;0.53;66.97
13312;BME280;34033;48.672;9.376;2024-01-15T00:59:14;97523.25;;;0.24;69.18
13312;BME280;34033;48.672;9.376;2024-01-15T01:01:43;97525.75;;;0.29;70.40
13312;BME280;34033;48.672;9.376;2024-01-15T01:04:09;97523.91;;;0.45;70.34
13312;BME280;34033;48.672;9.376;2024-01-15T01:06:34;97532.84;;;0.54;70.69
13312;BME280;34033;48.672;9.376;2024-01-15T01:09:00;97525.94;;;0.60;69.90
13312;BME280;34033;48.672;9.376;2024-01-15T01:11:25;97516.84;;;0.72;68.83
13312;BME280;34033;48.672;9.376;2024-01-15T01:13:51;97522.34;;;0.72;68.60
13312;BME280;34033;48.672;9.376;2024-01-15T01:16:16;97518.81;;;0.71;67.70
13312;BME280;34033;48.672;9.376;2024-01-15T01:18:42;97526.13;;;0.67;67.00
13312;BME280;34033;48.672;9.376;2024-01-15T01:21:07;97518.94;;;0.63;67.29
13312;BME280;34033;48.672;9.376;2024-01-15T01:23:32;97507.72;;;0.56;66.68
13312;BME280;34033;48.672;9.376;2024-01-15T01:25:58;97508.44;;;0.40;66.99
13312;BME280;34033;48.672;9.376;2024-01-15T01:28:23;97515.41;;;0.50;67.57
13312;BME280;34033;48.672;9.376;2024-01-15T01:30:48;97513.34;;;0.59;68.11
13312;BME280;34033;48.672;9.376;2024-01-15T01:33:13;97518.34;;;0.69;67.57
13312;BME280;34033;48.672;9.376;2024-01-15T01:35:39;97521.13;;;0.57;66.81
13312;BME280;34033;48.672;9.376;2024-01-15T01:38:04;97521.59;;;0.59;66.86
13312;BME280;34033;48.672;9.376;2024-01-15T01:40:29;97512.38;;;0.67;67.70
13312;BME280;34033;48.672;9.376;2024-01-15T01:42:55;97517.78;;;0.76;66.55
13312;BME280;34033;48.672;9.376;2024-01-15T01:45:20;97513.88;;;0.77;66.81
13312;BME280;34033;48.672;9.376;2024-01-15T01:47:45;97518.09;;;0.74;66.54
13312;BME280;34033;48.672;9.376;2024-01-15T01:50:12;97504.69;;;0.73;65.98
13312;BME280;34033;48.672;9.376;2024-01-15T01:52:38;97519.03;;;0.66;66.81
13312;BME280;34033;48.672;9.376;2024-01-15T01:55:04;97508.25;;;0.73;67.17
13312;BME280;34033;48.672;9.376;2024-01-15T01:57:32;97504.56;;;0.81;66.62
13312;BME280;34033;48.672;9.376;2024-01-15T02:00:00;97510.75;;;0.78;66.35
13312;BME280;34033;48.672;9.376;2024-01-15T02:02:26;97511.91;;;0.77;67.25
13312;BME280;34033;48.672;9.376;2024-01-15T02:04:51;97512.03;;;0.81;66.62
13312;BME280;34033;48.672;9.376;2024-01-15T02:07:17;97506.84;;;0.79;66.80
13312;BME280;34033;48.672;9.376;2024-01-15T02:09:44;97500.34;;;0.72;66.51
13312;BME280;34033;48.672;9.376;2024-01-15T02:12:09;97512.94;;;0.73;66.98
13312;BME280;34033;48.672;9.376;2024-01-15T02:14:35;97498.53;;;0.64;67.23
13312;BME280;34033;48.672;9.376;2024-01-15T02:17:00;97501.75;;;0.66;67.38
13312;BME280;34033;48.672;9.376;2024-01-15T02:19:25;97510.34;;;0.64;67.05
13312;BME280;34033;48.672;9.376;2024-01-15T02:21:51;97506.72;;;0.48;67.49
13312;BME280;34033;48.672;9.376;2024-01-15T02:24:16;97492.28;;;0.51;67.49
13312;BME280;34033;48.672;9.376;2024-01-15T02:26:42;97499.75;;;0.38;68.02
13312;BME280;34033;48.672;9.376;2024-01-15T02:29:07;97499.41;;;0.40;68.03
13312;BME280;34033;48.672;9.376;2024-01-15T02:31:36;97501.03;;;0.29;68.52
13312;BME280;34033;48.672;9.376;2024-01-15T02:34:02;97490.72;;;0.26;68.86
13312;BME280;34033;48.672;9.376;2024-01-15T02:36:27;97501.97;;;0.21;68.67
13312;BME280;34033;48.672;9.376;2024-01-15T02:38:52;97490.72;;;0.26;69.27
13312;BME280;34033;48.672;9.376;2024-01-15T02:41:18;97498.28;;;0.29;69.24
13312;BME280;34033;48.672;9.376;2024-01-15T02:43:43;97501.03;;;0.29;69.37
13312;BME280;34033;48.672;9.376;2024-01-15T02:46:09;97496.41;;;0.45;69.40
13312;BME280;34033;48.672;9.376;2024-01-15T02:48:34;97492.28;;;0.51;69.04
13312;BME280;34033;48.672;9.376;2024-01-15T02:51:02;97492.41;;;0.43;69.01
13312;BME280;34033;48.672;9.376;2024-01-15T02:53:28;97497.13;;;0.42;69.16
13312;BME280;34033;48.672;9.376;2024-01-15T02:55:53;97496.47;;;0.61;69.37
13312;BME280;34033;48.672;9.376;2024-01-15T02:58:19;97490.53;;;0.59;68.92
13312;BME280;34033;48.672;9.376;2024-01-15T03:00:44;97492.34;;;0.67;68.98
13312;BME280;34033;48.672;9.376;2024-01-15T03:03:11;97494.97;;;0.75;68.61
13312;BME280;34033;48.672;9.376;2024-01-15T03:05:36;97491.06;;;0.76;68.59
13312;BME280;34033;48.672;9.376;2024-01-15T03:08:02;97485.00;;;0.71;68.07
13312;BME280;34033;48.672;9.376;2024-01-15T03:10:27;97485.44;;;0.73;68.50
13312;BME280;34033;48.672;9.376;2024-01-15T03:12:53;97468.13;;;0.72;68.45
13312;BME280;34033;48.672;9.376;2024-01-15T03:15:18;97469.44;;;0.63;68.68
13312;BME280;34033;48.672;9.376;2024-01-15T03:17:43;97469.09;;;0.64;68.98
13312;BME280;34033;48.672;9.376;2024-01-15T03:20:09;97475.75;;;0.63;68.99
13312;BME280;34033;48.672;9.376;2024-01-15T03:22:35;97468.22;;;0.48;69.11
13312;BME280;34033;48.672;9.376;2024-01-15T03:25:00;97471.38;;;0.62;69.77
13312;BME280;34033;48.672;9.376;2024-01-15T03:27:26;97455.19;;;0.73;70.15
13312;BME280;34033;48.672;9.376;2024-01-15T03:29:51;97456.09;;;0.77;69.20
13312;BME280;34033;48.672;9.376;2024-01-15T03:32:17;97452.03;;;0.87;68.79
13312;BME280;34033;48.672;9.376;2024-01-15T03:34:42;97454.63;;;0.95;69.33
13312;BME280;34033;48.672;9.376;2024-01-15T03:37:07;97463.00;;;0.99;68.61
13312;BME280;34033;48.672;9.376;2024-01-15T03:39:33;97447.56;;;1.10;68.54
13312;BME280;34033;48.672;9.376;2024-01-15T03:41:58;97441.44;;;1.16;67.71
13312;BME280;34033;48.672;9.376;2024-01-15T03:44:23;97443.38;;;1.16;67.70
13312;BME280;34033;48.672;9.376;2024-01-15T03:46:49;97451.47;;;1.09;67.65
13312;BME280;34033;48.672;9.376;2024-01-15T03:49:14;97452.81;;;1.15;67.66
13312;BME280;34033;48.672;9.376;2024-01-15T03:51:40;97456.16;;;1.08;67.61
13312;BME280;34033;48.672;9.376;2024-01-15T03:54:05;97449.53;;;1.09;67.92
13312;BME280;34033;48.672;9.376;2024-01-15T03:56:30;97444.16;;;1.01;68.08
13312;BME280;34033;48.672;9.376;2024-01-15T03:58:56;97442.28;;;1.05;67.99
13312;BME280;34033;48.672;9.376;2024-01-15T04:01:21;97438.13;;;1.11;68.35
13312;BME280;34033;48.672;9.376;2024-01-15T04:03:46;97434.69;;;1.14;67.81
13312;BME280;34033;48.672;9.376;2024-01-15T04:06:12;97433.09;;;1.13;67.78
13312;BME280;34033;48.672;9.376;2024-01-15T04:08:37;97429.53;;;1.12;68.05
13312;BME280;34033;48.672;9.376;2024-01-15T04:11:02;97430.47;;;1.32;79.41
13312;BME280;34033;48.672;9.376;2024-01-15T04:13:28;97435.50;;;1.30;71.18
13312;BME280;34033;48.672;9.376;2024-01-15T04:15:53;97424.03;;;1.28;69.78
13312;BME280;34033;48.672;9.376;2024-01-15T04:18:18;97412.41;;;1.35;69.10
13312;BME280;34033;48.672;9.376;2024-01-15T04:20:44;97416.50;;;1.41;68.32
13312;BME280;34033;48.672;9.376;2024-01-15T04:23:09;97420.50;;;1.43;67.88
13312;BME280;34033;48.672;9.376;2024-01-15T04:25:34;97419.00;;;1.46;67.19
13312;BME280;34033;48.672;9.376;2024-01-15T04:28:00;97420.31;;;1.36;67.71
13312;BME280;34033;48.672;9.376;2024-01-15T04:30:26;97415.97;;;1.35;67.79
13312;BME280;34033;48.672;9.376;2024-01-15T04:32:51;97415.34;;;1.42;67.71
13312;BME280;34033;48.672;9.376;2024-01-15T04:35:16;97418.09;;;1.42;67.95
13312;BME280;34033;48.672;9.376;2024-01-15T04:37:42;97412.16;;;1.24;68.49
13312;BME280;34033;48.672;9.376;2024-01-15T04:40:07;97407.09;;;1.26;68.80
13312;BME280;34033;48.672;9.376;2024-01-15T04:42:33;97414.38;;;1.34;68.73
13312;BME280;34033;48.672;9.376;2024-01-15T04:44:59;97412.50;;;1.38;68.14
13312;BME280;34033;48.672;9.376;2024-01-15T04:47:24;97406.56;;;1.36;67.89
13312;BME280;34033;48.672;9.376;2024-01-15T04:49:50;97407.06;;;1.10;68.53
13312;BME280;34033;48.672;9.376;2024-01-15T04:52:15;97420.13;;;0.98;69.33
13312;BME280;34033;48.672;9.376;2024-01-15T04:54:40;97405.00;;;0.92;69.29
13312;BME280;34033;48.672;9.376;2024-01-15T04:57:06;97411.28;;;0.76;69.76
13312;BME280;34033;48.672;9.376;2024-01-15T04:59:31;97410.06;;;0.90;69.66
13312;BME280;34033;48.672;9.376;2024-01-15T05:01:56;97409.00;;;0.94;70.36
13312;BME280;34033;48.672;9.376;2024-01-15T05:04:22;97408.44;;;0.89;70.24
13312;BME280;34033;48.672;9.376;2024-01-15T05:06:48;97427.09;;;0.95;70.40
13312;BME280;34033;48.672;9.376;2024-01-15T05:09:13;97411.72;;;0.78;71.41
13312;BME280;34033;48.672;9.376;2024-01-15T05:11:39;97402.50;;;0.71;72.18
13312;BME280;34033;48.672;9.376;2024-01-15T05:14:05;97406.94;;;0.75;71.83
13312;BME280;34033;48.672;9.376;2024-01-15T05:16:30;97415.22;;;0.63;72.30
13312;BME280;34033;48.672;9.376;2024-01-15T05:18:55;97419.16;;;0.78;71.87
13312;BME280;34033;48.672;9.376;2024-01-15T05:21:21;97412.31;;;0.72;72.71
13312;BME280;34033;48.672;9.376;2024-01-15T05:23:46;97416.59;;;0.69;73.25
13312;BME280;34033;48.672;9.376;2024-01-15T05:26:11;97416.13;;;0.67;73.33
13312;BME280;34033;48.672;9.376;2024-01-15T05:28:37;97406.72;;;0.68;73.74
13312;BME280;34033;48.672;9.376;2024-01-15T05:31:02;97412.94;;;0.65;74.37
13312;BME280;34033;48.672;9.376;2024-01-15T05:33:29;97408.13;;;0.62;74.49
13312;BME280;34033;48.672;9.376;2024-01-15T05:35:54;97390.41;;;0.60;74.95
13312;BME280;34033;48.672;9.376;2024-01-15T05:38:20;97388.31;;;0.57;75.09
13312;BME280;34033;48.672;9.376;2024-01-15T05:40:45;97378.13;;;0.57;75.71
13312;BME280;34033;48.672;9.376;2024-01-15T05:43:11;97390.66;;;0.55;75.29
13312;BME280;34033;48.672;9.376;2024-01-15T05:45:38;97376.34;;;0.49;76.26
13312;BME280;34033;48.672;9.376;2024-01-15T05:48:03;97370.47;;;0.51;76.11
13312;BME280;34033;48.672;9.376;2024-01-15T05:50:29;97368.16;;;0.37;76.52
13312;BME280;34033;48.672;9.376;2024-01-15T05:52:54;97382.97;;;0.20;77.21
13312;BME280;34033;48.672;9.376;2024-01-15T05:55:19;97370.22;;;0.28;77.37
13312;BME280;34033;48.672;9.376;2024-01-15T05:57:45;97387.97;;;0.30;77.76
13312;BME280;34033;48.672;9.376;2024-01-15T06:00:11;97386.28;;;0.26;77.26
13312;BME280;34033;48.672;9.376;2024-01-15T06:02:39;97379.72;;;0.30;77.64
13312;BME280;34033;48.672;9.376;2024-01-15T06:05:05;97388.56;;;0.24;77.82
13312;BME280;34033;48.672;9.376;2024-01-15T06:07:31;97378.94;;;0.30;77.37
13312;BME280;34033;48.672;9.376;2024-01-15T06:09:57;97378.69;;;0.35;77.20
13312;BME280;34033;48.672;9.376;2024-01-15T06:12:22;97369.28;;;0.36;76.59
13312;BME280;34033;48.672;9.376;2024-01-15T06:14:48;97361.75;;;0.33;77.14
13312;BME280;34033;48.672;9.376;2024-01-15T06:17:13;97369.84;;;0.41;76.99
13312;BME280;34033;48.672;9.376;2024-01-15T06:19:39;97378.00;;;0.38;76.83
13312;BME280;34033;48.672;9.376;2024-01-15T06:22:04;97372.94;;;0.40;76.52
13312;BME280;34033;48.672;9.376;2024-01-15T06:24:29;97377.63;;;0.39;77.21
13312;BME280;34033;48.672;9.376;2024-01-15T06:26:55;97363.28;;;0.46;77.31
13312;BME280;34033;48.672;9.376;2024-01-15T06:29:20;97368.53;;;0.51;77.60
13312;BME280;34033;48.672;9.376;2024-01-15T06:31:46;97377.28;;;0.41;77.74
13312;BME280;34033;48.672;9.376;2024-01-15T06:34:11;97377.53;;;0.36;78.26
13312;BME280;34033;48.672;9.376;2024-01-15T06:36:37;97374.28;;;0.46;78.33
13312;BME280;34033;48.672;9.376;2024-01-15T06:39:02;97371.28;;;0.51;77.74
13312;BME280;34033;48.672;9.376;2024-01-15T06:41:28;97375.34;;;0.41;77.81
13312;BME280;34033;48.672;9.376;2024-01-15T06:43:53;97368.09;;;0.49;77.63
13312;BME280;34033;48.672;9.376;2024-01-15T06:46:22;97367.72;;;0.51;77.60
13312;BME280;34033;48.672;9.376;2024-01-15T06:48:48;97372.13;;;0.39;77.37
13312;BME280;34033;48.672;9.376;2024-01-15T06:51:14;97371.00;;;0.40;77.32
13312;BME280;34033;48.672;9.376;2024-01-15T06:53:39;97356.91;;;0.42;77.43
13312;BME280;34033;48.672;9.376;2024-01-15T06:56:04;97355.38;;;0.45;77.18
13312;BME280;34033;48.672;9.376;2024-01-15T06:58:33;97349.34;;;0.39;77.21
13312;BME280;34033;48.672;9.376;2024-01-15T07:00:59;97363.19;;;0.43;76.84
13312;BME280;34033;48.672;9.376;2024-01-15T07:03:24;97342.00;;;0.43;76.25
13312;BME280;34033;48.672;9.376;2024-01-15T07:05:50;97346.16;;;0.37;76.29
13312;BME280;34033;48.672;9.376;2024-01-15T07:08:15;97339.13;;;0.39;76.06
13312;BME280;34033;48.672;9.376;2024-01-15T07:10:41;97340.88;;;0.44;76.13
13312;BME280;34033;48.672;9.376;2024-01-15T07:13:06;97343.84;;;0.39;75.87
13312;BME280;34033;48.672;9.376;2024-01-15T07:15:31;97336.13;;;0.45;75.58
13312;BME280;34033;48.672;9.376;2024-01-15T07:17:56;97332.25;;;0.46;74.86
13312;BME280;34033;48.672;9.376;2024-01-15T07:20:22;97330.28;;;0.46;75.12
13312;BME280;34033;48.672;9.376;2024-01-15T07:22:47;97332.34;;;0.49;74.73
13312;BME280;34033;48.672;9.376;2024-01-15T07:25:12;97335.72;;;0.58;74.35
13312;BME280;34033;48.672;9.376;2024-01-15T07:27:38;97354.00;;;0.66;73.74
13312;BME280;34033;48.672;9.376;2024-01-15T07:30:04;97347.09;;;0.72;73.01
13312;BME280;34033;48.672;9.376;2024-01-15T07:32:30;97344.19;;;0.65;72.88
13312;BME280;34033;48.672;9.376;2024-01-15T07:34:56;97353.78;;;0.71;72.62
13312;BME280;34033;48.672;9.376;2024-01-15T07:37:22;97343.06;;;0.82;71.36
13312;BME280;34033;48.672;9.376;2024-01-15T07:39:48;97348.38;;;0.91;71.17
13312;BME280;34033;48.672;9.376;2024-01-15T07:42:14;97349.25;;;0.95;70.82
13312;BME280;34033;48.672;9.376;2024-01-15T07:44:39;97353.97;;;0.94;70.65
13312;BME280;34033;48.672;9.376;2024-01-15T07:47:05;97353.72;;;0.99;70.85
13312;BME280;34033;48.672;9.376;2024-01-15T07:49:30;97346.69;;;1.02;70.49
13312;BME280;34033;48.672;9.376;2024-01-15T07:51:55;97343.50;;;1.00;70.12
13312;BME280;34033;48.672;9.376;2024-01-15T07:54:21;97358.06;;;1.00;70.11
13312;BME280;34033;48.672;9.376;2024-01-15T07:57:01;97340.84;;;1.03;69.86
13312;BME280;34033;48.672;9.376;2024-01-15T07:59:28;97339.84;;;0.96;69.95
13312;BME280;34033;48.672;9.376;2024-01-15T08:01:53;97344.66;;;0.99;70.18
13312;BME280;34033;48.672;9.376;2024-01-15T08:04:19;97343.16;;;1.01;70.29
13312;BME280;34033;48.672;9.376;2024-01-15T08:06:45;97340.03;;;1.03;70.02
13312;BME280;34033;48.672;9.376;2024-01-15T08:09:11;97347.16;;;1.04;69.97
13312;BME280;34033;48.672;9.376;2024-01-15T08:11:40;97352.66;;;1.04;69.47
13312;BME280;34033;48.672;9.376;2024-01-15T08:14:10;97364.47;;;1.20;69.22
13312;BME280;34033;48.672;9.376;2024-01-15T08:16:36;97360.63;;;1.91;91.17
13312;BME280;34033;48.672;9.376;2024-01-15T08:19:01;97361.44;;;4.42;100.00
13312;BME280;34033;48.672;9.376;2024-01-15T08:21:27;97365.31;;;3.28;64.06
13312;BME280;34033;48.672;9.376;2024-01-15T08:23:59;97355.81;;;2.84;63.53
13312;BME280;34033;48.672;9.376;2024-01-15T08:26:24;97350.34;;;2.45;63.41
13312;BME280;34033;48.672;9.376;2024-01-15T08:28:50;97359.19;;;1.97;64.56
13312;BME280;34033;48.672;9.376;2024-01-15T08:31:16;97357.81;;;1.87;65.09
13312;BME280;34033;48.672;9.376;2024-01-15T08:33:41;97356.75;;;1.76;64.94
13312;BME280;34033;48.672;9.376;2024-01-15T08:36:06;97361.75;;;1.55;64.59
13312;BME280;34033;48.672;9.376;2024-01-15T08:38:32;97358.03;;;1.63;64.86
13312;BME280;34033;48.672;9.376;2024-01-15T08:40:57;97363.59;;;1.66;64.71
13312;BME280;34033;48.672;9.376;2024-01-15T08:43:25;97366.06;;;1.37;64.97
13312;BME280;34033;48.672;9.376;2024-01-15T08:45:51;97354.94;;;1.49;64.86
13312;BME280;34033;48.672;9.376;2024-01-15T08:48:16;97350.47;;;1.60;64.93
13312;BME280;34033;48.672;9.376;2024-01-15T08:50:42;97355.28;;;1.63;64.38
13312;BME280;34033;48.672;9.376;2024-01-15T08:53:07;97361.53;;;1.79;63.70
13312;BME280;34033;48.672;9.376;2024-01-15T08:55:32;97367.69;;;1.73;63.07
13312;BME280;34033;48.672;9.376;2024-01-15T08:57:58;97358.34;;;1.77;62.71
13312;BME280;34033;48.672;9.376;2024-01-15T09:00:23;97363.16;;;1.80;62.57
13312;BME280;34033;48.672;9.376;2024-01-15T09:02:49;97366.41;;;1.86;62.38
13312;BME280;34033;48.672;9.376;2024-01-15T09:05:14;97378.16;;;1.83;62.44
13312;BME280;34033;48.672;9.376;2024-01-15T09:07:39;97372.78;;;1.71;61.77
13312;BME280;34033;48.672;9.376;2024-01-15T09:10:05;97384.31;;;1.76;62.15
13312;BME280;34033;48.672;9.376;2024-01-15T09:12:31;97378.44;;;1.78;61.72
13312;BME280;34033;48.672;9.376;2024-01-15T09:14:57;97377.78;;;1.84;60.73
13312;BME280;34033;48.672;9.376;2024-01-15T09:17:22;97363.50;;;1.79;61.07
13312;BME280;34033;48.672;9.376;2024-01-15T09:19:50;97369.06;;;1.82;60.62
13312;BME280;34033;48.672;9.376;2024-01-15T09:22:15;97376.72;;;1.89;60.78
13312;BME280;34033;48.672;9.376;2024-01-15T09:24:44;97363.38;;;1.91;60.27
13312;BME280;34033;48.672;9.376;2024-01-15T09:27:10;97349.78;;;1.82;60.36
13312;BME280;34033;48.672;9.376;2024-01-15T09:29:35;97353.88;;;1.88;60.59
13312;BME280;34033;48.672;9.376;2024-01-15T09:32:05;97350.28;;;2.03;60.25
13312;BME280;34033;48.672;9.376;2024-01-15T09:34:30;97338.75;;;2.17;59.91
13312;BME280;34033;48.672;9.376;2024-01-15T09:36:56;97334.91;;;2.22;59.41
13312;BME280;34033;48.672;9.376;2024-01-15T09:39:21;97328.44;;;2.33;58.87
13312;BME280;34033;48.672;9.376;2024-01-15T09:41:49;97334.41;;;2.35;58.25
13312;BME280;34033;48.672;9.376;2024-01-15T09:44:15;97325.53;;;2.26;58.29
13312;BME280;34033;48.672;9.376;2024-01-15T09:46:41;97317.13;;;2.38;58.26
13312;BME280;34033;48.672;9.376;2024-01-15T09:49:10;97325.47;;;2.42;58.77
13312;BME280;34033;48.672;9.376;2024-01-15T09:51:35;97320.56;;;2.55;58.44
13312;BME280;34033;48.672;9.376;2024-01-15T09:54:02;97315.25;;;2.65;57.24
13312;BME280;34033;48.672;9.376;2024-01-15T09:56:30;97322.72;;;2.65;57.91
13312;BME280;34033;48.672;9.376;2024-01-15T09:58:55;97319.41;;;2.56;57.97
13312;BME280;34033;48.672;9.376;2024-01-15T10:01:22;97318.34;;;2.41;58.21
13312;BME280;34033;48.672;9.376;2024-01-15T10:03:48;97320.16;;;2.53;58.35
13312;BME280;34033;48.672;9.376;2024-01-15T10:06:17;97313.03;;;2.51;57.82
13312;BME280;34033;48.672;9.376;2024-01-15T10:08:48;97311.81;;;2.49;58.33
13312;BME280;34033;48.672;9.376;2024-01-15T10:11:13;97298.41;;;2.47;57.68
13312;BME280;34033;48.672;9.376;2024-01-15T10:13:39;97297.50;;;2.43;57.98
13312;BME280;34033;48.672;9.376;2024-01-15T10:16:05;97301.31;;;2.35;58.07
13312;BME280;34033;48.672;9.376;2024-01-15T10:18:30;97296.34;;;2.44;58.13
13312;BME280;34033;48.672;9.376;2024-01-15T10:20:56;97297.91;;;2.42;57.78
13312;BME280;34033;48.672;9.376;2024-01-15T10:23:23;97292.72;;;2.40;57.90
13312;BME280;34033;48.672;9.376;2024-01-15T10:25:48;97293.94;;;2.43;58.19
13312;BME280;34033;48.672;9.376;2024-01-15T10:28:13;97288.56;;;2.50;57.88
13312;BME280;34033;48.672;9.376;2024-01-15T10:30:39;97285.91;;;2.54;58.01
13312;BME280;34033;48.672;9.376;2024-01-15T10:33:04;97285.66;;;2.62;57.00
13312;BME280;34033;48.672;9.376;2024-01-15T10:35:32;97287.66;;;2.65;57.50
13312;BME280;34033;48.672;9.376;2024-01-15T10:38:01;97285.34;;;2.67;57.04
13312;BME280;34033;48.672;9.376;2024-01-15T10:40:27;97283.94;;;2.77;57.00
13312;BME280;34033;48.672;9.376;2024-01-15T10:42:53;97295.97;;;2.88;57.21
13312;BME280;34033;48.672;9.376;2024-01-15T10:45:19;97285.00;;;2.69;56.85
13312;BME280;34033;48.672;9.376;2024-01-15T10:47:44;97288.78;;;2.61;57.35
13312;BME280;34033;48.672;9.376;2024-01-15T10:50:11;97280.94;;;2.63;57.15
13312;BME280;34033;48.672;9.376;2024-01-15T10:52:38;97283.84;;;2.70;57.58
13312;BME280;34033;48.672;9.376;2024-01-15T10:55:06;97268.84;;;2.71;57.34
13312;BME280;34033;48.672;9.376;2024-01-15T10:57:34;97268.44;;;2.69;57.59
13312;BME280;34033;48.672;9.376;2024-01-15T11:00:00;97265.53;;;2.62;57.54
13312;BME280;34033;48.672;9.376;2024-01-15T11:02:29;97277.97;;;2.52;58.25
13312;BME280;34033;48.672;9.376;2024-01-15T11:04:54;97259.88;;;2.55;58.27
13312;BME280;34033;48.672;9.376;2024-01-15T11:07:22;97271.91;;;2.66;58.32
13312;BME280;34033;48.672;9.376;2024-01-15T11:09:49;97251.00;;;2.65;58.39
13312;BME280;34033;48.672;9.376;2024-01-15T11:12:16;97249.47;;;2.67;58.20
13312;BME280;34033;48.672;9.376;2024-01-15T11:14:46;97258.69;;;2.75;58.19
13312;BME280;34033;48.672;9.376;2024-01-15T11:17:12;97296.44;;;2.71;58.04
13312;BME280;34033;48.672;9.376;2024-01-15T11:19:43;97267.84;;;2.60;58.34
13312;BME280;34033;48.672;9.376;2024-01-15T11:22:10;97258.41;;;2.61;58.92
13312;BME280;34033;48.672;9.376;2024-01-15T11:27:04;97257.25;;;2.62;59.63
13312;BME280;34033;48.672;9.376;2024-01-15T11:29:32;97240.28;;;2.60;59.74
13312;BME280;34033;48.672;9.376;2024-01-15T11:32:17;97254.50;;;2.62;59.46
13312;BME280;34033;48.672;9.376;2024-01-15T11:34:55;97243.59;;;2.46;59.99
13312;BME280;34033;48.672;9.376;2024-01-15T11:37:23;97231.81;;;2.49;60.66
13312;BME280;34033;48.672;9.376;2024-01-15T11:39:54;97235.41;;;2.30;61.11
13312;BME280;34033;48.672;9.376;2024-01-15T11:42:21;97241.66;;;2.27;61.53
13312;BME280;34033;48.672;9.376;2024-01-15T11:44:47;97229.47;;;2.28;62.28
13312;BME280;34033;48.672;9.376;2024-01-15T11:47:13;97230.09;;;2.41;62.13
13312;BME280;34033;48.672;9.376;2024-01-15T11:50:01;97226.19;;;2.42;62.89
13312;BME280;34033;48.672;9.376;2024-01-15T11:52:34;97215.81;;;2.35;62.68
13312;BME280;34033;48.672;9.376;2024-01-15T11:57:50;97227.88;;;2.50;62.90
13312;BME280;34033;48.672;9.376;2024-01-15T12:00:16;97222.72;;;2.48;63.26
13312;BME280;34033;48.672;9.376;2024-01-15T12:02:43;97243.94;;;2.44;63.22
13312;BME280;34033;48.672;9.376;2024-01-15T12:05:10;97239.53;;;2.40;63.74
13312;BME280;34033;48.672;9.376;2024-01-15T12:07:41;97250.22;;;2.41;63.66
13312;BME280;34033;48.672;9.376;2024-01-15T12:15:25;97255.94;;;2.33;65.98
13312;BME280;34033;48.672;9.376;2024-01-15T12:17:50;97249.31;;;2.15;68.33
13312;BME280;34033;48.672;9.376;2024-01-15T12:20:17;97233.13;;;1.94;71.12
13312;BME280;34033;48.672;9.376;2024-01-15T12:22:42;97238.47;;;2.06;72.16
13312;BME280;34033;48.672;9.376;2024-01-15T12:25:08;97240.03;;;2.03;74.09
13312;BME280;34033;48.672;9.376;2024-01-15T12:27:34;97238.47;;;2.06;75.03
13312;BME280;34033;48.672;9.376;2024-01-15T12:30:00;97247.34;;;1.96;75.58
13312;BME280;34033;48.672;9.376;2024-01-15T12:32:25;97275.91;;;1.88;76.79
13312;BME280;34033;48.672;9.376;2024-01-15T12:34:51;97252.00;;;1.92;76.86
13312;BME280;34033;48.672;9.376;2024-01-15T12:37:20;97249.16;;;1.88;77.54
13312;BME280;34033;48.672;9.376;2024-01-15T12:39:45;97256.19;;;1.86;79.00
13312;BME280;34033;48.672;9.376;2024-01-15T12:42:11;97251.56;;;1.90;79.48
13312;BME280;34033;48.672;9.376;2024-01-15T12:44:37;97268.38;;;1.85;79.68
13312;BME280;34033;48.672;9.376;2024-01-15T12:47:06;97261.56;;;1.98;79.53
13312;BME280;34033;48.672;9.376;2024-01-15T12:49:32;97261.06;;;1.92;79.79
13312;BME280;34033;48.672;9.376;2024-01-15T12:51:58;97269.69;;;1.91;79.82
13312;BME280;34033;48.672;9.376;2024-01-15T12:54:24;97262.00;;;2.00;80.30
13312;BME280;34033;48.672;9.376;2024-01-15T12:56:50;97266.63;;;1.96;80.50
13312;BME280;34033;48.672;9.376;2024-01-15T12:59:17;97257.72;;;1.83;82.22
13312;BME280;34033;48.672;9.376;2024-01-15T13:01:42;97260.91;;;1.85;83.84
13312;BME280;34033;48.672;9.376;2024-01-15T13:04:08;97274.16;;;1.80;84.60
13312;BME280;34033;48.672;9.376;2024-01-15T13:06:37;97264.19;;;1.91;85.69
13312;BME280;34033;48.672;9.376;2024-01-15T13:09:05;97260.97;;;1.89;85.90
13312;BME280;34033;48.672;9.376;2024-01-15T13:11:33;97267.06;;;1.79;88.06
13312;BME280;34033;48.672;9.376;2024-01-15T13:13:59;97256.56;;;1.84;88.75